createdAt,value
2018-07-07T00:02:06.382Z,12.00
2018-07-07T00:04:36.045Z,9.97
2018-07-07T00:07:05.731Z,9.70
2018-07-07T00:09:35.450Z,15.63
2018-07-07T00:12:05.194Z,11.40
2018-07-07T00:14:34.865Z,9.50
2018-07-07T00:17:04.600Z,8.40
2018-07-07T00:19:34.263Z,15.43
2018-07-07T00:22:04.520Z,11.50
2018-07-07T00:24:34.504Z,9.30
2018-07-07T00:27:04.272Z,10.87
2018-07-07T00:29:33.949Z,14.10
2018-07-07T00:32:03.648Z,12.23
2018-07-07T00:34:33.384Z,14.37
2018-07-07T00:37:03.079Z,8.20
2018-07-07T00:39:32.788Z,8.90
2018-07-07T00:42:02.525Z,9.70
2018-07-07T00:44:32.316Z,8.00
2018-07-07T00:47:02.010Z,11.60
2018-07-07T00:49:31.776Z,9.93
2018-07-07T00:52:01.464Z,10.73
2018-07-07T00:54:31.335Z,8.00
2018-07-07T00:57:00.916Z,11.10
2018-07-07T00:59:30.614Z,6.77
2018-07-07T01:02:00.479Z,12.57
2018-07-07T01:04:30.156Z,8.83
2018-07-07T01:06:59.832Z,12.60
2018-07-07T01:09:29.646Z,12.23
2018-07-07T01:11:59.659Z,9.93
2018-07-07T01:14:29.376Z,8.87
2018-07-07T01:16:59.083Z,13.33
2018-07-07T01:19:28.841Z,12.40
2018-07-07T01:21:58.598Z,7.47
2018-07-07T01:24:28.261Z,11.27
2018-07-07T01:26:57.944Z,9.57
2018-07-07T01:29:27.666Z,10.93
2018-07-07T01:31:57.396Z,11.73
2018-07-07T01:34:27.110Z,14.93
2018-07-07T01:36:56.879Z,11.63
2018-07-07T01:39:26.560Z,6.83
2018-07-07T01:41:56.276Z,11.50
2018-07-07T01:44:25.972Z,9.47
2018-07-07T01:46:55.644Z,9.93
2018-07-07T01:49:25.366Z,6.23
2018-07-07T01:51:55.048Z,9.23
2018-07-07T01:54:24.736Z,8.63
2018-07-07T01:56:54.476Z,11.27
2018-07-07T01:59:24.152Z,15.57
2018-07-07T02:01:53.824Z,10.77
2018-07-07T02:04:23.548Z,7.57
2018-07-07T02:06:53.259Z,11.20
2018-07-07T02:09:22.955Z,11.93
2018-07-07T02:11:52.764Z,10.43
2018-07-07T02:14:22.461Z,10.83
2018-07-07T02:16:52.196Z,10.27
2018-07-07T02:19:21.865Z,8.37
2018-07-07T02:21:51.572Z,12.33
2018-07-07T02:24:21.311Z,11.53
2018-07-07T02:26:51.007Z,12.43
2018-07-07T02:29:20.747Z,12.50
2018-07-07T02:31:50.449Z,11.57
2018-07-07T02:34:20.185Z,13.87
2018-07-07T02:36:49.853Z,11.47
2018-07-07T02:39:19.554Z,12.63
2018-07-07T02:41:49.269Z,9.13
2018-07-07T02:44:18.963Z,14.47
2018-07-07T02:46:48.683Z,8.07
2018-07-07T02:49:18.415Z,12.53
2018-07-07T02:51:48.078Z,10.50
2018-07-07T02:54:17.785Z,10.90
2018-07-07T02:56:47.489Z,13.27
2018-07-07T02:59:17.166Z,15.63
2018-07-07T03:01:46.856Z,15.17
2018-07-07T03:04:16.562Z,9.57
2018-07-07T03:06:46.244Z,10.63
2018-07-07T03:09:16.405Z,9.47
2018-07-07T03:11:46.116Z,10.10
2018-07-07T03:14:15.817Z,9.03
2018-07-07T03:16:45.566Z,11.23
2018-07-07T03:19:15.365Z,9.43
2018-07-07T03:21:45.068Z,12.80
2018-07-07T03:24:14.715Z,8.33
2018-07-07T03:26:44.377Z,17.83
2018-07-07T03:29:14.100Z,8.73
2018-07-07T03:31:43.765Z,8.30
2018-07-07T03:34:13.412Z,12.07
2018-07-07T03:36:43.160Z,13.53
2018-07-07T03:39:13.172Z,12.63
2018-07-07T03:41:42.860Z,7.60
2018-07-07T03:44:12.581Z,8.63
2018-07-07T03:46:42.265Z,12.83
2018-07-07T03:49:11.958Z,13.00
2018-07-07T03:51:41.721Z,14.63
2018-07-07T03:54:11.436Z,11.73
2018-07-07T03:56:41.147Z,13.27
2018-07-07T03:59:10.798Z,8.83
2018-07-07T04:01:40.476Z,12.80
2018-07-07T04:04:10.191Z,10.77
2018-07-07T04:06:39.887Z,12.83
2018-07-07T04:09:09.584Z,10.93
2018-07-07T04:11:39.329Z,12.00
2018-07-07T04:14:09.047Z,16.60
2018-07-07T04:16:38.766Z,15.87
2018-07-07T04:19:08.503Z,9.27
2018-07-07T04:21:38.216Z,14.40
2018-07-07T04:24:07.890Z,14.33
2018-07-07T04:26:37.647Z,12.87
2018-07-07T04:29:07.339Z,12.80
2018-07-07T04:31:37.053Z,13.97
2018-07-07T04:34:07.243Z,13.13
2018-07-07T04:36:36.950Z,13.67
2018-07-07T04:39:07.102Z,10.07
2018-07-07T04:41:36.808Z,9.23
2018-07-07T04:44:06.500Z,10.00
2018-07-07T04:46:36.215Z,12.00
2018-07-07T04:49:06.169Z,12.90
2018-07-07T04:51:35.867Z,13.20
2018-07-07T04:54:05.615Z,13.27
2018-07-07T04:56:35.309Z,8.43
2018-07-07T04:59:05.065Z,14.67
2018-07-07T05:01:34.767Z,10.57
2018-07-07T05:04:04.441Z,10.33
2018-07-07T05:06:34.200Z,11.03
2018-07-07T05:09:04.014Z,12.27
2018-07-07T05:11:33.800Z,9.70
2018-07-07T05:14:03.559Z,11.87
2018-07-07T05:16:33.258Z,13.10
2018-07-07T05:19:02.948Z,11.97
2018-07-07T05:21:32.839Z,11.13
2018-07-07T05:24:02.584Z,8.90
2018-07-07T05:26:32.343Z,12.07
2018-07-07T05:29:08.502Z,10.17
2018-07-07T05:31:38.226Z,14.53
2018-07-07T05:34:07.943Z,14.77
2018-07-07T05:36:37.883Z,17.93
2018-07-07T05:39:08.233Z,13.70
2018-07-07T05:41:38.119Z,12.60
2018-07-07T05:44:07.862Z,10.30
2018-07-07T05:46:37.609Z,11.60
2018-07-07T05:49:07.356Z,9.27
2018-07-07T05:51:37.384Z,14.13
2018-07-07T05:54:07.189Z,9.30
2018-07-07T05:56:36.867Z,12.60
2018-07-07T05:59:06.627Z,10.53
2018-07-07T06:01:36.340Z,16.83
2018-07-07T06:04:06.115Z,10.17
2018-07-07T06:06:35.837Z,13.63
2018-07-07T06:09:06.093Z,9.77
2018-07-07T06:11:36.204Z,19.33
2018-07-07T06:14:05.977Z,14.90
2018-07-07T06:16:35.852Z,9.50
2018-07-07T06:19:05.749Z,9.67
2018-07-07T06:21:35.509Z,15.80
2018-07-07T06:24:05.527Z,13.57
2018-07-07T06:26:35.322Z,11.10
2018-07-07T06:29:05.031Z,9.97
2018-07-07T06:31:34.672Z,11.43
2018-07-07T06:34:04.644Z,12.20
2018-07-07T06:36:34.341Z,12.87
2018-07-07T06:39:04.932Z,11.90
2018-07-07T06:41:34.591Z,13.87
2018-07-07T06:44:04.673Z,13.90
2018-07-07T06:46:34.399Z,10.67
2018-07-07T06:49:04.362Z,11.30
2018-07-07T06:51:34.114Z,13.80
2018-07-07T06:54:03.877Z,11.90
2018-07-07T06:56:33.627Z,9.93
2018-07-07T06:59:03.336Z,12.70
2018-07-07T07:01:33.096Z,10.47
2018-07-07T07:04:02.800Z,11.77
2018-07-07T07:06:32.520Z,10.70
2018-07-07T07:09:02.376Z,10.33
2018-07-07T07:11:32.108Z,11.20
2018-07-07T07:14:01.875Z,13.27
2018-07-07T07:16:31.635Z,10.17
2018-07-07T07:19:01.331Z,10.77
2018-07-07T07:21:31.112Z,9.10
2018-07-07T07:24:01.191Z,10.07
2018-07-07T07:26:30.924Z,11.93
2018-07-07T07:29:00.680Z,13.73
2018-07-07T07:31:30.465Z,7.43
2018-07-07T07:34:00.320Z,13.67
2018-07-07T07:36:37.464Z,12.00
2018-07-07T07:39:07.372Z,9.57
2018-07-07T07:41:37.151Z,7.87
2018-07-07T07:44:06.899Z,10.93
2018-07-07T07:46:36.705Z,12.13
2018-07-07T07:49:06.507Z,14.43
2018-07-07T07:51:36.492Z,11.67
2018-07-07T07:54:06.277Z,10.73
2018-07-07T07:56:35.995Z,12.57
2018-07-07T07:59:05.893Z,8.13
2018-07-07T08:01:35.533Z,8.27
2018-07-07T08:04:05.325Z,7.40
2018-07-07T08:06:35.012Z,7.93
2018-07-07T08:09:05.153Z,11.90
2018-07-07T08:11:34.855Z,9.80
2018-07-07T08:14:04.631Z,7.80
2018-07-07T08:16:34.769Z,8.67
2018-07-07T08:19:04.791Z,9.73
2018-07-07T08:21:34.568Z,7.53
2018-07-07T08:24:04.360Z,11.00
2018-07-07T08:26:34.130Z,11.43
2018-07-07T08:29:03.847Z,7.87
2018-07-07T08:31:33.565Z,7.80
2018-07-07T08:34:03.405Z,8.57
2018-07-07T08:36:33.176Z,9.50
2018-07-07T08:39:03.004Z,11.57
2018-07-07T08:41:32.743Z,6.60
2018-07-07T08:44:02.468Z,8.67
2018-07-07T08:46:32.264Z,8.57
2018-07-07T08:49:01.976Z,10.50
2018-07-07T08:51:32.617Z,7.57
2018-07-07T08:54:02.328Z,4.90
2018-07-07T08:56:32.024Z,7.87
2018-07-07T08:59:01.779Z,7.93
2018-07-07T09:01:31.480Z,7.83
2018-07-07T09:04:01.210Z,8.17
2018-07-07T09:06:30.897Z,11.93
2018-07-07T09:09:00.613Z,8.90
2018-07-07T09:11:30.327Z,7.97
2018-07-07T09:14:00.066Z,8.80
2018-07-07T09:16:29.815Z,8.73
2018-07-07T09:18:59.871Z,12.33
2018-07-07T09:21:29.597Z,8.97
2018-07-07T09:23:59.345Z,7.57
2018-07-07T09:26:29.032Z,8.43
2018-07-07T09:28:58.753Z,10.33
2018-07-07T09:31:28.433Z,8.57
2018-07-07T09:33:58.201Z,6.50
2018-07-07T09:36:28.167Z,10.33
2018-07-07T09:38:57.868Z,9.63
2018-07-07T09:41:27.580Z,5.63
2018-07-07T09:43:57.262Z,9.47
2018-07-07T09:46:26.940Z,7.63
2018-07-07T09:48:56.673Z,6.80
2018-07-07T09:51:26.344Z,6.45
2018-07-07T09:54:02.240Z,8.98
2018-07-07T09:56:31.913Z,9.70
2018-07-07T09:59:01.590Z,6.22
2018-07-07T10:01:31.315Z,7.58
2018-07-07T10:04:01.067Z,9.85
2018-07-07T10:06:30.798Z,6.37
2018-07-07T10:09:00.461Z,8.08
2018-07-07T10:11:30.170Z,7.08
2018-07-07T10:13:59.932Z,10.90
2018-07-07T10:16:30.024Z,6.22
2018-07-07T10:18:59.707Z,8.10
2018-07-07T10:21:29.443Z,6.03
2018-07-07T10:23:59.116Z,4.95
2018-07-07T10:26:28.819Z,6.35
2018-07-07T10:28:58.609Z,10.23
2018-07-07T10:31:28.324Z,10.23
2018-07-07T10:33:58.000Z,6.92
2018-07-07T10:36:27.731Z,7.35
2018-07-07T10:38:57.415Z,8.75
2018-07-07T10:41:27.125Z,6.25
2018-07-07T10:43:56.816Z,6.17
2018-07-07T10:46:26.508Z,7.87
2018-07-07T10:48:56.317Z,9.18
2018-07-07T10:51:26.016Z,4.83
2018-07-07T10:53:55.917Z,7.15
2018-07-07T10:56:25.661Z,5.62
2018-07-07T10:58:55.562Z,5.95
2018-07-07T11:01:25.330Z,4.40
2018-07-07T11:03:55.344Z,6.45
2018-07-07T11:06:25.147Z,6.47
2018-07-07T11:08:54.809Z,9.90
2018-07-07T11:11:24.590Z,6.78
2018-07-07T11:13:54.373Z,6.15
2018-07-07T11:16:24.047Z,8.50
2018-07-07T11:18:53.704Z,7.95
2018-07-07T11:21:23.444Z,4.00
2018-07-07T11:23:53.128Z,6.97
2018-07-07T11:26:22.789Z,8.08
2018-07-07T11:28:52.548Z,5.17
2018-07-07T11:31:22.239Z,6.08
2018-07-07T11:33:51.899Z,4.95
2018-07-07T11:36:21.687Z,6.05
2018-07-07T11:38:51.401Z,5.80
2018-07-07T11:41:22.961Z,5.35
2018-07-07T11:43:54.184Z,4.80
2018-07-07T11:46:23.992Z,5.22
2018-07-07T11:48:53.660Z,10.32
2018-07-07T11:51:23.371Z,5.10
2018-07-07T11:53:53.341Z,9.48
2018-07-07T11:56:23.008Z,6.00
2018-07-07T11:58:52.965Z,4.55
2018-07-07T12:01:22.663Z,4.40
2018-07-07T12:03:52.531Z,5.65
2018-07-07T12:06:22.207Z,5.80
2018-07-07T12:08:51.924Z,3.62
2018-07-07T12:11:21.722Z,5.05
2018-07-07T12:13:51.407Z,7.37
2018-07-07T12:16:21.265Z,6.22
2018-07-07T12:18:50.965Z,6.20
2018-07-07T12:21:20.660Z,7.83
2018-07-07T12:23:50.405Z,5.70
2018-07-07T12:26:20.076Z,6.20
2018-07-07T12:28:49.732Z,4.78
2018-07-07T12:31:19.464Z,4.85
2018-07-07T12:33:49.237Z,6.62
2018-07-07T12:36:18.936Z,7.58
2018-07-07T12:38:48.637Z,8.30
2018-07-07T12:41:18.354Z,3.42
2018-07-07T12:43:48.061Z,7.47
2018-07-07T12:46:17.788Z,4.95
2018-07-07T12:48:47.484Z,5.65
2018-07-07T12:51:17.204Z,3.98
2018-07-07T12:53:46.877Z,6.25
2018-07-07T12:56:16.581Z,7.72
2018-07-07T12:58:46.308Z,6.60
2018-07-07T13:01:16.069Z,9.65
2018-07-07T13:03:45.703Z,5.40
2018-07-07T13:06:15.399Z,6.62
2018-07-07T13:08:45.244Z,5.95
2018-07-07T13:11:14.959Z,11.15
2018-07-07T13:13:44.732Z,5.17
2018-07-07T13:16:14.553Z,7.75
2018-07-07T13:18:44.253Z,7.25
2018-07-07T13:21:13.927Z,3.17
2018-07-07T13:23:43.699Z,7.30
2018-07-07T13:26:13.444Z,7.25
2018-07-07T13:28:43.079Z,5.50
2018-07-07T13:31:12.777Z,6.25
2018-07-07T13:33:42.544Z,5.80
2018-07-07T13:36:12.192Z,6.20
2018-07-07T13:38:41.915Z,5.62
2018-07-07T13:41:11.611Z,8.30
2018-07-07T13:43:41.275Z,6.33
2018-07-07T13:46:10.981Z,5.90
2018-07-07T13:48:40.698Z,4.70
2018-07-07T13:51:10.425Z,4.55
2018-07-07T13:53:40.152Z,5.70
2018-07-07T13:56:09.845Z,6.35
2018-07-07T13:58:39.524Z,4.95
2018-07-07T14:01:09.268Z,4.83
2018-07-07T14:03:39.048Z,7.28
2018-07-07T14:06:08.723Z,5.90
2018-07-07T14:08:38.446Z,7.33
2018-07-07T14:11:08.132Z,5.58
2018-07-07T14:13:37.851Z,8.80
2018-07-07T14:16:07.708Z,8.35
2018-07-07T14:18:37.363Z,4.70
2018-07-07T14:21:07.167Z,5.92
2018-07-07T14:23:36.976Z,9.15
2018-07-07T14:26:06.675Z,8.68
2018-07-07T14:28:36.356Z,4.12
2018-07-07T14:31:06.468Z,8.05
2018-07-07T14:33:36.267Z,3.40
2018-07-07T14:36:05.978Z,7.15
2018-07-07T14:38:36.940Z,6.10
2018-07-07T14:41:15.140Z,5.53
2018-07-07T14:43:57.107Z,5.40
2018-07-07T14:46:27.360Z,7.22
2018-07-07T14:48:57.124Z,9.15
2018-07-07T14:51:26.870Z,5.65
2018-07-07T14:53:56.588Z,4.70
2018-07-07T14:56:26.949Z,5.17
2018-07-07T14:58:56.656Z,5.92
2018-07-07T15:01:26.423Z,4.78
2018-07-07T15:03:56.138Z,5.75
2018-07-07T15:06:26.120Z,6.85
2018-07-07T15:08:55.912Z,4.15
2018-07-07T15:11:25.630Z,6.50
2018-07-07T15:13:55.403Z,4.78
2018-07-07T15:16:25.099Z,5.80
2018-07-07T15:18:54.792Z,5.17
2018-07-07T15:21:24.569Z,5.37
2018-07-07T15:23:54.279Z,5.20
2018-07-07T15:26:23.930Z,7.10
2018-07-07T15:28:53.687Z,7.40
2018-07-07T15:31:23.403Z,5.22
2018-07-07T15:33:53.231Z,4.40
2018-07-07T15:36:22.933Z,7.05
2018-07-07T15:38:52.598Z,6.33
2018-07-07T15:41:22.328Z,5.45
2018-07-07T15:43:51.988Z,5.60
2018-07-07T15:46:21.720Z,6.53
2018-07-07T15:48:51.432Z,7.03
2018-07-07T15:51:21.152Z,4.55
2018-07-07T15:53:50.810Z,5.65
2018-07-07T15:56:20.513Z,5.22
2018-07-07T15:58:50.179Z,7.47
2018-07-07T16:01:19.855Z,5.83
2018-07-07T16:03:49.587Z,4.92
2018-07-07T16:06:19.260Z,4.05
2018-07-07T16:08:48.920Z,5.87
2018-07-07T16:11:18.749Z,6.85
2018-07-07T16:13:48.465Z,3.98
2018-07-07T16:16:18.189Z,7.47
2018-07-07T16:18:47.875Z,5.97
2018-07-07T16:21:17.579Z,5.67
2018-07-07T16:23:47.304Z,5.78
2018-07-07T16:26:17.168Z,7.95
2018-07-07T16:28:47.206Z,4.00
2018-07-07T16:31:16.924Z,3.85
2018-07-07T16:33:46.631Z,6.78
2018-07-07T16:36:16.372Z,7.22
2018-07-07T16:38:46.336Z,6.70
2018-07-07T16:41:16.246Z,4.97
2018-07-07T16:43:46.005Z,5.42
2018-07-07T16:46:15.732Z,7.42
2018-07-07T16:48:45.768Z,4.28
2018-07-07T16:51:15.519Z,5.33
2018-07-07T16:53:46.240Z,4.60
2018-07-07T16:56:18.284Z,5.17
2018-07-07T16:58:48.101Z,9.93
2018-07-07T17:01:18.161Z,4.75
2018-07-07T17:03:47.972Z,9.58
2018-07-07T17:06:17.819Z,3.92
2018-07-07T17:08:47.633Z,5.67
2018-07-07T17:11:17.393Z,5.72
2018-07-07T17:13:47.241Z,3.52
2018-07-07T17:16:16.913Z,8.03
2018-07-07T17:18:46.727Z,8.68
2018-07-07T17:21:17.028Z,6.75
2018-07-07T17:23:46.932Z,7.72
2018-07-07T17:26:16.667Z,4.70
2018-07-07T17:28:46.696Z,3.47
2018-07-07T17:31:16.516Z,3.70
2018-07-07T17:33:47.363Z,6.72
2018-07-07T17:36:17.801Z,5.75
2018-07-07T17:38:47.574Z,4.95
2018-07-07T17:41:17.327Z,4.72
2018-07-07T17:43:47.174Z,5.60
2018-07-07T17:46:16.988Z,4.78
2018-07-07T17:48:46.751Z,5.40
2018-07-07T17:51:16.880Z,8.63
2018-07-07T17:53:46.699Z,5.67
2018-07-07T17:56:17.879Z,5.92
2018-07-07T17:58:47.643Z,3.98
2018-07-07T18:01:17.393Z,5.42
2018-07-07T18:03:47.200Z,6.62
2018-07-07T18:06:16.879Z,8.63
2018-07-07T18:08:46.703Z,4.20
2018-07-07T18:11:16.357Z,4.50
2018-07-07T18:13:46.065Z,6.27
2018-07-07T18:16:15.885Z,4.60
2018-07-07T18:18:45.565Z,6.12
2018-07-07T18:21:15.276Z,5.40
2018-07-07T18:23:45.056Z,7.40
2018-07-07T18:26:14.765Z,5.57
2018-07-07T18:28:44.517Z,10.63
2018-07-07T18:31:14.196Z,8.07
2018-07-07T18:33:43.836Z,4.53
2018-07-07T18:36:13.540Z,5.37
2018-07-07T18:38:43.229Z,4.17
2018-07-07T18:41:12.910Z,9.37
2018-07-07T18:43:42.707Z,8.53
2018-07-07T18:46:12.377Z,5.97
2018-07-07T18:48:42.119Z,5.63
2018-07-07T18:51:11.782Z,3.93
2018-07-07T18:53:41.444Z,6.07
2018-07-07T18:56:11.193Z,5.90
2018-07-07T18:58:40.895Z,8.10
2018-07-07T19:01:10.640Z,4.90
2018-07-07T19:03:40.319Z,5.60
2018-07-07T19:06:10.063Z,4.90
2018-07-07T19:08:39.723Z,9.43
2018-07-07T19:11:09.433Z,7.50
2018-07-07T19:13:39.165Z,6.03
2018-07-07T19:16:08.864Z,6.20
2018-07-07T19:18:38.577Z,5.73
2018-07-07T19:21:13.415Z,7.53
2018-07-07T19:23:48.075Z,8.03
2018-07-07T19:26:22.849Z,5.83
2018-07-07T19:28:52.572Z,6.40
2018-07-07T19:31:22.296Z,8.30
2018-07-07T19:33:57.055Z,4.90
2018-07-07T19:36:31.837Z,4.70
2018-07-07T19:39:01.546Z,5.50
2018-07-07T19:41:31.312Z,6.33
2018-07-07T19:44:01.032Z,4.97
2018-07-07T19:46:30.758Z,6.57
2018-07-07T19:49:00.529Z,8.30
2018-07-07T19:51:30.301Z,4.93
2018-07-07T19:54:00.024Z,6.93
2018-07-07T19:56:29.752Z,7.17
2018-07-07T19:58:59.461Z,5.83
2018-07-07T20:01:29.223Z,5.33
2018-07-07T20:03:58.933Z,7.03
2018-07-07T20:06:28.686Z,4.20
2018-07-07T20:08:58.461Z,7.07
2018-07-07T20:11:28.176Z,5.07
2018-07-07T20:13:57.899Z,7.47
2018-07-07T20:17:40.231Z,8.03
2018-07-07T20:20:45.820Z,4.43
2018-07-07T20:23:16.812Z,3.80
2018-07-07T20:25:51.576Z,4.00
2018-07-07T20:28:26.463Z,7.07
2018-07-07T20:30:59.586Z,4.87
2018-07-07T20:33:29.765Z,6.70
2018-07-07T20:35:59.432Z,8.83
2018-07-07T20:38:29.249Z,4.03
2018-07-07T20:40:58.953Z,5.73
2018-07-07T20:43:28.727Z,4.73
2018-07-07T20:45:58.393Z,5.40
2018-07-07T20:48:28.084Z,7.90
2018-07-07T20:50:57.855Z,7.83
2018-07-07T20:53:27.565Z,6.73
2018-07-07T20:55:57.285Z,6.57
2018-07-07T20:58:26.994Z,7.67
2018-07-07T21:00:56.710Z,5.37
2018-07-07T21:03:26.448Z,6.33
2018-07-07T21:05:56.129Z,5.00
2018-07-07T21:08:25.820Z,5.83
2018-07-07T21:10:55.547Z,5.23
2018-07-07T21:13:25.300Z,8.20
2018-07-07T21:15:54.996Z,5.57
2018-07-07T21:18:24.797Z,7.83
2018-07-07T21:20:54.473Z,6.57
2018-07-07T21:23:24.281Z,7.70
2018-07-07T21:25:53.944Z,5.97
2018-07-07T21:28:23.638Z,4.00
2018-07-07T21:30:53.443Z,10.37
2018-07-07T21:33:23.130Z,4.60
2018-07-07T21:35:52.913Z,7.20
2018-07-07T21:38:22.657Z,5.10
2018-07-07T21:40:52.495Z,8.43
2018-07-07T21:43:22.220Z,6.73
2018-07-07T21:45:51.916Z,8.20
2018-07-07T21:48:21.694Z,6.13
2018-07-07T21:50:51.492Z,5.00
2018-07-07T21:53:21.212Z,9.43
2018-07-07T21:55:50.960Z,6.30
2018-07-07T21:58:28.323Z,7.07
2018-07-07T22:01:11.180Z,5.03
2018-07-07T22:03:46.969Z,5.20
2018-07-07T22:06:21.896Z,4.87
2018-07-07T22:08:51.609Z,4.97
2018-07-07T22:11:21.309Z,9.67
2018-07-07T22:13:51.009Z,8.23
2018-07-07T22:16:20.752Z,5.20
2018-07-07T22:18:50.439Z,9.43
2018-07-07T22:21:31.201Z,4.60
2018-07-07T22:24:00.860Z,8.17
2018-07-07T22:26:30.606Z,6.47
2018-07-07T22:29:00.333Z,5.00
2018-07-07T22:31:30.053Z,4.00
2018-07-07T22:33:59.725Z,4.67
2018-07-07T22:36:34.743Z,4.50
2018-07-07T22:39:04.627Z,10.27
2018-07-07T22:41:51.480Z,6.60
2018-07-07T22:44:21.424Z,8.63
2018-07-07T22:46:51.485Z,10.60
2018-07-07T22:49:21.190Z,6.23
2018-07-07T22:51:50.961Z,6.03
2018-07-07T22:54:20.709Z,9.07
2018-07-07T22:56:50.373Z,9.20
2018-07-07T22:59:20.111Z,6.77
2018-07-07T23:01:49.776Z,5.47
2018-07-07T23:04:19.472Z,5.50
2018-07-07T23:06:49.246Z,6.83
2018-07-07T23:09:19.386Z,6.57
2018-07-07T23:11:49.135Z,10.40
2018-07-07T23:14:18.794Z,5.70
2018-07-07T23:16:48.468Z,7.07
2018-07-07T23:19:18.251Z,6.63
2018-07-07T23:21:47.922Z,8.07
2018-07-07T23:24:17.669Z,4.53
2018-07-07T23:26:47.393Z,6.40
2018-07-07T23:29:17.061Z,7.40
2018-07-07T23:31:46.748Z,8.13
2018-07-07T23:34:16.513Z,8.80
2018-07-07T23:36:46.265Z,6.83
2018-07-07T23:39:15.953Z,8.83
2018-07-07T23:41:45.850Z,6.40
2018-07-07T23:44:15.556Z,7.93
2018-07-07T23:46:45.284Z,7.80
2018-07-07T23:49:14.940Z,9.83
2018-07-07T23:51:44.689Z,9.87
2018-07-07T23:54:14.888Z,8.20
2018-07-07T23:56:44.632Z,6.53
2018-07-07T23:59:14.321Z,11.77
